Time;durP1;ratioP1;P1;durP2;ratioP2;P2;SDS_P1;SDS_P2;PMS_P1;PMS_P2;Temp;Humidity;BMP_temperature;BMP_pressure;BME280_temperature;BME280_humidity;BME280_pressure;Samples;Min_cycle;Max_cycle;Signal;HPM_P1;HPM_P2
2022/01/19 00:01:34;;;;;;;;;;;;;;;3.42;98.25;102613.77;107299;1285;73191;-79
2022/01/19 00:04:04;;;;;;;;;;;;;;;3.42;97.95;102613.08;107273;1284;72343;-79
2022/01/19 00:06:30;;;;;;;;;;;;;;;3.42;98.04;102609.23;107283;1284;74639;-77
2022/01/19 00:08:57;;;;;;;;;;;;;;;3.41;98.10;102606.34;107107;1287;65072;-78
2022/01/19 00:11:24;;;;;;;;;;;;;;;3.37;97.68;102611.05;107160;1285;60390;-78
2022/01/19 00:13:51;;;;;;;;;;;;;;;3.34;97.84;102617.01;107192;1285;76048;-76
2022/01/19 00:16:18;;;;;;;;;;;;;;;3.30;97.66;102613.90;106991;1287;71259;-76
2022/01/19 00:18:45;;;;;;;;;;;;;;;3.23;97.54;102608.27;107375;1285;73724;-76
2022/01/19 00:21:33;;;;;;;;;;;;;;;3.16;97.71;102604.48;107246;1287;62246;-77
2022/01/19 00:23:58;;;;;;;;;;;;;;;3.10;97.67;102605.30;107416;1285;60447;-76
2022/01/19 00:26:25;;;;;;;;;;;;;;;3.03;97.80;102600.05;107173;1285;76106;-76
2022/01/19 00:28:52;;;;;;;;;;;;;;;2.98;97.91;102582.85;107425;1285;71590;-76
2022/01/19 00:31:19;;;;;;;;;;;;;;;2.93;98.07;102569.86;107152;1285;74002;-77
2022/01/19 00:33:45;;;;;;;;;;;;;;;2.86;98.11;102561.27;107255;1286;62033;-78
2022/01/19 00:36:12;;;;;;;;;;;;;;;2.81;98.09;102552.94;107372;1284;59176;-76
2022/01/19 00:38:38;;;;;;;;;;;;;;;2.78;98.49;102539.81;107243;1283;59676;-78
2022/01/19 00:41:05;;;;;;;;;;;;;;;2.76;98.69;102541.00;107458;1285;59871;-78
2022/01/19 00:43:35;;;;;;;;;;;;;;;2.72;98.58;102544.71;107395;1284;73121;-78
2022/01/19 00:46:02;;;;;;;;;;;;;;;2.67;98.61;102539.70;107388;1282;63295;-76
2022/01/19 00:48:29;;;;;;;;;;;;;;;2.64;98.91;102538.75;107136;1285;60702;-78
2022/01/19 00:50:57;;;;;;;;;;;;;;;2.62;98.92;102537.66;107452;1285;75170;-78
2022/01/19 00:53:27;;;;;;;;;;;;;;;2.58;98.90;102546.61;107375;1284;72564;-78
2022/01/19 00:55:53;;;;;;;;;;;;;;;2.52;98.64;102550.23;107383;1285;73362;-79
2022/01/19 00:58:23;;;;;;;;;;;;;;;2.46;98.62;102548.44;107227;1287;63293;-78
2022/01/19 01:00:49;;;;;;;;;;;;;;;2.40;98.55;102547.52;107423;1284;59426;-78
2022/01/19 01:03:37;;;;;;;;;;;;;;;2.35;98.81;102543.90;107396;1285;74693;-77
2022/01/19 01:06:04;;;;;;;;;;;;;;;2.31;99.15;102532.59;107350;1285;69879;-77
2022/01/19 01:08:36;;;;;;;;;;;;;;;2.27;99.32;102535.58;107438;1284;72856;-77
2022/01/19 01:11:03;;;;;;;;;;;;;;;2.24;99.58;102535.71;107144;1285;62517;-78
2022/01/19 01:15:25;;;;;;;;;;;;;;;2.20;99.14;102524.40;107456;1284;61460;-79
2022/01/19 01:16:19;;;;;;;;;;;;;;;2.10;98.59;102514.59;107220;1287;75983;-78
2022/01/19 01:18:46;;;;;;;;;;;;;;;2.05;99.14;102518.70;107306;1285;71695;-76
2022/01/19 01:21:13;;;;;;;;;;;;;;;2.02;99.62;102516.00;107393;1284;74014;-76
2022/01/19 01:23:40;;;;;;;;;;;;;;;2.01;99.81;102510.66;107403;1284;62305;-78
2022/01/19 01:26:07;;;;;;;;;;;;;;;1.97;99.48;102504.73;107223;1285;60580;-76
2022/01/19 01:28:34;;;;;;;;;;;;;;;1.87;98.60;102492.33;107462;1284;75103;-78
2022/01/19 01:31:00;;;;;;;;;;;;;;;1.79;98.61;102476.48;106839;1287;584390;-76
2022/01/19 01:33:27;;;;;;;;;;;;;;;1.72;98.55;102471.44;107413;1285;72741;-80
2022/01/19 01:35:54;;;;;;;;;;;;;;;1.66;98.70;102470.50;107376;1284;62495;-79
2022/01/19 01:38:20;;;;;;;;;;;;;;;1.60;99.13;102460.29;107433;1285;61656;-77
2022/01/19 01:41:06;;;;;;;;;;;;;;;1.54;99.11;102460.76;107435;1285;76671;-77
2022/01/19 01:43:32;;;;;;;;;;;;;;;1.49;99.72;102452.11;107418;1284;72188;-77
2022/01/19 01:46:04;;;;;;;;;;;;;;;1.46;99.94;102443.20;107197;1287;72827;-78
2022/01/19 01:48:35;;;;;;;;;;;;;;;1.42;99.82;102428.92;107126;1285;61334;-76
2022/01/19 01:53:46;;;;;;;;;;;;;;;1.31;99.91;102417.90;107438;1285;76077;-77
2022/01/19 01:56:16;;;;;;;;;;;;;;;1.25;99.78;102409.70;107403;1285;71520;-76
2022/01/19 01:58:45;;;;;;;;;;;;;;;1.17;99.59;102403.04;107377;1285;73380;-76
2022/01/19 02:01:11;;;;;;;;;;;;;;;1.12;99.77;102407.98;107262;1285;63327;-78
2022/01/19 02:03:41;;;;;;;;;;;;;;;1.06;99.64;102414.71;107146;1286;60492;-78
2022/01/19 02:08:52;;;;;;;;;;;;;;;0.86;99.64;102402.07;107248;1285;71241;-77
2022/01/19 02:22:37;;;;;;;;;;;;;;;0.67;100.00;102366.35;107247;1287;71661;-78
2022/01/19 02:25:05;;;;;;;;;;;;;;;0.67;100.00;102360.06;107237;1286;72744;-78
2022/01/19 02:41:54;;;;;;;;;;;;;;;0.64;100.00;102319.30;107296;1285;62338;-78
2022/01/19 02:46:37;;;;;;;;;;;;;;;0.59;100.00;102309.27;107434;1285;60648;-76
2022/01/19 02:50:05;;;;;;;;;;;;;;;0.51;100.00;102307.88;107279;1286;71376;-78
2022/01/19 02:52:45;;;;;;;;;;;;;;;0.47;100.00;102301.78;107248;1285;73194;-78
2022/01/19 02:55:14;;;;;;;;;;;;;;;0.43;100.00;102295.20;107254;1287;63347;-78
2022/01/19 02:57:42;;;;;;;;;;;;;;;0.45;100.00;102294.04;107309;1286;60396;-79
2022/01/19 03:09:05;;;;;;;;;;;;;;;0.41;100.00;102265.52;107026;1287;59791;-78
2022/01/19 03:11:32;;;;;;;;;;;;;;;0.37;100.00;102260.65;107271;1287;60393;-80
2022/01/19 03:13:59;;;;;;;;;;;;;;;0.36;100.00;102260.71;107434;1284;74942;-80
2022/01/19 03:16:25;;;;;;;;;;;;;;;0.34;100.00;102256.60;107343;1286;71492;-78
2022/01/19 03:19:02;;;;;;;;;;;;;;;0.32;100.00;102252.15;107155;1284;72988;-78
2022/01/19 03:21:29;;;;;;;;;;;;;;;0.30;100.00;102243.20;107305;1286;61256;-77
2022/01/19 03:23:57;;;;;;;;;;;;;;;0.30;100.00;102237.81;107145;1287;59404;-77
2022/01/19 03:26:24;;;;;;;;;;;;;;;0.28;100.00;102238.42;107307;1287;75146;-79
2022/01/19 03:29:02;;;;;;;;;;;;;;;0.26;100.00;102236.45;107502;1287;71512;-78
2022/01/19 03:31:30;;;;;;;;;;;;;;;0.20;100.00;102235.31;107492;1284;73023;-79
2022/01/19 03:33:57;;;;;;;;;;;;;;;0.13;100.00;102233.35;107410;1285;61995;-77
2022/01/19 03:36:26;;;;;;;;;;;;;;;0.05;100.00;102226.60;107075;1285;60776;-78
2022/01/19 03:38:53;;;;;;;;;;;;;;;0.03;100.00;102212.42;107387;1286;76166;-78
2022/01/19 03:41:20;;;;;;;;;;;;;;;0.03;100.00;102199.77;107079;1287;72588;-78
2022/01/19 03:43:49;;;;;;;;;;;;;;;-0.01;100.00;102200.58;107155;1287;73021;-78
2022/01/19 03:46:17;;;;;;;;;;;;;;;-0.06;100.00;102201.15;107332;1286;60869;-78
2022/01/19 03:48:53;;;;;;;;;;;;;;;-0.12;100.00;102202.13;107487;1285;60193;-77
2022/01/19 03:51:30;;;;;;;;;;;;;;;;;;;;;
2022/01/19 03:53:57;;;;;;;;;;;;;;;-0.22;100.00;102199.29;107249;1287;70383;-78
2022/01/19 03:56:23;;;;;;;;;;;;;;;-0.25;100.00;102196.98;107282;1287;74352;-79
2022/01/19 03:58:50;;;;;;;;;;;;;;;-0.26;100.00;102189.21;107258;1287;62658;-78
2022/01/19 04:01:17;;;;;;;;;;;;;;;-0.25;100.00;102182.90;107200;1285;61091;-76
2022/01/19 04:04:14;;;;;;;;;;;;;;;-0.26;100.00;102177.35;107450;1284;74859;-78
2022/01/19 04:09:27;;;;;;;;;;;;;;;-0.39;100.00;102161.46;107335;1285;71726;-76
2022/01/19 04:11:56;;;;;;;;;;;;;;;-0.45;100.00;102155.29;107353;1284;59654;-76
2022/01/19 04:14:27;;;;;;;;;;;;;;;-0.49;100.00;102141.91;107112;1284;60506;-80
2022/01/19 04:16:53;;;;;;;;;;;;;;;-0.53;100.00;102134.41;107211;1285;74780;-78
2022/01/19 04:22:11;;;;;;;;;;;;;;;-0.57;100.00;102122.80;107258;1284;72912;-79
2022/01/19 04:24:38;;;;;;;;;;;;;;;-0.62;100.00;102124.40;107193;1285;61477;-76
2022/01/19 04:30:01;;;;;;;;;;;;;;;-0.67;100.00;102118.33;107240;1285;75271;-78
2022/01/19 04:32:52;;;;;;;;;;;;;;;;;;;;;
2022/01/19 04:35:44;;;;;;;;;;;;;;;-0.68;100.00;102127.96;107318;1285;74336;-79
2022/01/19 04:54:53;;;;;;;;;;;;;;;-0.83;100.00;102088.11;106908;1284;60637;-79
2022/01/19 05:03:32;;;;;;;;;;;;;;;-0.91;100.00;102049.56;107434;1284;74605;-79
2022/01/19 05:06:14;;;;;;;;;;;;;;;-0.91;100.00;102045.77;107063;1287;59928;-77
2022/01/19 05:14:01;;;;;;;;;;;;;;;-0.88;100.00;102024.94;107401;1285;71414;-75
2022/01/19 05:16:28;;;;;;;;;;;;;;;-0.83;100.00;102019.68;107403;1285;73035;-77
2022/01/19 05:18:54;;;;;;;;;;;;;;;-0.78;100.00;102014.14;107366;1286;60438;-75
2022/01/19 05:21:39;;;;;;;;;;;;;;;-0.74;100.00;102016.00;107381;1285;61226;-76
2022/01/19 05:24:07;;;;;;;;;;;;;;;-0.66;100.00;102015.42;107196;1285;76658;-78
2022/01/19 05:26:38;;;;;;;;;;;;;;;-0.58;100.00;102012.31;107448;1285;71439;-77
2022/01/19 05:29:05;;;;;;;;;;;;;;;-0.53;100.00;102009.14;107450;1285;73945;-79
2022/01/19 05:31:32;;;;;;;;;;;;;;;-0.50;100.00;102001.02;107107;1285;60302;-78
2022/01/19 05:33:59;;;;;;;;;;;;;;;-0.49;100.00;101988.97;107481;1285;58931;-80
2022/01/19 05:36:26;;;;;;;;;;;;;;;-0.46;100.00;101987.27;107448;1284;75987;-77
2022/01/19 05:38:52;;;;;;;;;;;;;;;-0.43;100.00;101987.63;107451;1285;74957;-78
2022/01/19 05:41:21;;;;;;;;;;;;;;;-0.39;100.00;101992.52;107204;1287;73116;-78
2022/01/19 05:43:48;;;;;;;;;;;;;;;-0.37;100.00;101984.23;107212;1286;61657;-78
2022/01/19 05:46:23;;;;;;;;;;;;;;;-0.34;100.00;101983.21;107357;1285;60627;-76
2022/01/19 05:48:50;;;;;;;;;;;;;;;-0.31;100.00;101983.95;107438;1284;74998;-77
2022/01/19 05:51:17;;;;;;;;;;;;;;;-0.29;100.00;101976.76;107090;1287;70619;-77
2022/01/19 05:53:48;;;;;;;;;;;;;;;-0.30;100.00;101970.52;107430;1284;72692;-80
2022/01/19 05:56:15;;;;;;;;;;;;;;;-0.31;100.00;101966.56;107334;1285;61575;-78
2022/01/19 05:58:42;;;;;;;;;;;;;;;-0.31;100.00;101962.73;107172;1287;59850;-79
2022/01/19 06:01:09;;;;;;;;;;;;;;;-0.29;100.00;101958.12;107256;1285;76143;-76
2022/01/19 06:03:36;;;;;;;;;;;;;;;-0.25;100.00;101954.46;107396;1286;73016;-76
2022/01/19 06:06:03;;;;;;;;;;;;;;;-0.22;100.00;101948.05;107486;1284;74833;-79
2022/01/19 06:08:44;;;;;;;;;;;;;;;-0.20;100.00;101933.36;107423;1284;61182;-76
2022/01/19 06:11:26;;;;;;;;;;;;;;;-0.18;100.00;101921.45;107451;1284;60330;-79
2022/01/19 06:14:06;;;;;;;;;;;;;;;-0.11;100.00;101910.50;107173;1285;75827;-78
2022/01/19 06:16:45;;;;;;;;;;;;;;;0.02;100.00;101889.51;107168;1285;72408;-80
2022/01/19 06:19:14;;;;;;;;;;;;;;;0.16;100.00;101885.33;107462;1285;74139;-77
2022/01/19 06:21:42;;;;;;;;;;;;;;;0.29;100.00;101886.90;107366;1284;59855;-77
2022/01/19 06:24:09;;;;;;;;;;;;;;;0.41;100.00;101888.58;107297;1285;60525;-77
2022/01/19 06:26:36;;;;;;;;;;;;;;;0.50;100.00;101888.95;107370;1285;59725;-77
2022/01/19 06:29:03;;;;;;;;;;;;;;;0.58;100.00;101883.85;107386;1284;72845;-77
2022/01/19 06:31:29;;;;;;;;;;;;;;;0.62;100.00;101865.15;107400;1284;72871;-80
2022/01/19 06:33:58;;;;;;;;;;;;;;;0.66;100.00;101874.89;107410;1285;61456;-78
2022/01/19 06:36:25;;;;;;;;;;;;;;;0.69;100.00;101873.32;107454;1285;59902;-77
2022/01/19 06:38:57;;;;;;;;;;;;;;;0.73;100.00;101865.25;107401;1285;74142;-80
2022/01/19 06:41:24;;;;;;;;;;;;;;;0.80;100.00;101864.71;107516;1285;71102;-79
2022/01/19 06:43:50;;;;;;;;;;;;;;;0.86;100.00;101857.82;107520;1284;73241;-80
2022/01/19 06:46:31;;;;;;;;;;;;;;;0.90;100.00;101858.62;107528;1284;61566;-79
2022/01/19 06:49:04;;;;;;;;;;;;;;;0.96;100.00;101864.04;107304;1285;60443;-79
2022/01/19 06:51:31;;;;;;;;;;;;;;;0.99;100.00;101854.83;107256;1287;74890;-80
2022/01/19 06:53:58;;;;;;;;;;;;;;;1.00;100.00;101847.10;107123;1287;59118;-79
2022/01/19 06:56:24;;;;;;;;;;;;;;;1.00;100.00;101844.33;107533;1284;72483;-79
2022/01/19 06:58:51;;;;;;;;;;;;;;;0.98;100.00;101837.44;107244;1286;62354;-80
2022/01/19 07:01:23;;;;;;;;;;;;;;;1.02;100.00;101839.67;107485;1284;60326;-79
2022/01/19 07:03:52;;;;;;;;;;;;;;;1.04;100.00;101838.70;107151;1285;74309;-78
2022/01/19 07:06:34;;;;;;;;;;;;;;;1.07;100.00;101831.06;107201;1285;70271;-78
2022/01/19 07:09:03;;;;;;;;;;;;;;;1.05;100.00;101825.04;107585;1284;72917;-79
2022/01/19 07:11:39;;;;;;;;;;;;;;;1.04;100.00;101817.62;107436;1276;61484;-77
2022/01/19 07:14:08;;;;;;;;;;;;;;;1.02;100.00;101811.11;107242;1276;152609;-78
2022/01/19 07:16:42;;;;;;;;;;;;;;;1.03;100.00;101802.67;107261;1284;77413;-79
2022/01/19 07:19:12;;;;;;;;;;;;;;;1.03;100.00;101795.04;107185;1286;71580;-77
2022/01/19 07:21:39;;;;;;;;;;;;;;;1.02;100.00;101794.59;107345;1285;75742;-79
2022/01/19 07:24:15;;;;;;;;;;;;;;;1.02;100.00;101793.51;107491;1284;61423;-79
2022/01/19 07:26:42;;;;;;;;;;;;;;;1.03;100.00;101790.31;107312;1285;60367;-77
2022/01/19 07:29:08;;;;;;;;;;;;;;;1.06;100.00;101785.62;107367;1285;75108;-77
2022/01/19 07:31:37;;;;;;;;;;;;;;;1.08;100.00;101788.50;107406;1284;72859;-77
2022/01/19 07:34:06;;;;;;;;;;;;;;;1.09;100.00;101788.58;107387;1285;73060;-78
2022/01/19 07:36:54;;;;;;;;;;;;;;;1.11;100.00;101790.04;107472;1284;62194;-78
2022/01/19 07:39:20;;;;;;;;;;;;;;;1.13;100.00;101796.58;107391;1285;60444;-78
2022/01/19 07:41:55;;;;;;;;;;;;;;;1.15;100.00;101803.05;107222;1285;76854;-77
2022/01/19 07:44:35;;;;;;;;;;;;;;;;;;;;;
2022/01/19 07:47:09;;;;;;;;;;;;;;;1.28;100.00;101796.57;107253;1284;74944;-78
2022/01/19 07:49:36;;;;;;;;;;;;;;;1.33;100.00;101789.65;107310;1287;62458;-78
2022/01/19 07:52:03;;;;;;;;;;;;;;;1.39;100.00;101791.09;107317;1286;60318;-79
2022/01/19 07:54:32;;;;;;;;;;;;;;;1.44;100.00;101791.98;107198;1285;76005;-78
2022/01/19 07:56:59;;;;;;;;;;;;;;;1.49;100.00;101790.34;107448;1282;71375;-79
2022/01/19 07:59:26;;;;;;;;;;;;;;;1.49;100.00;101789.27;107490;1284;72690;-79
2022/01/19 08:02:58;;;;;;;;;;;;;;;1.52;100.00;101789.10;107351;1287;61501;-78
2022/01/19 08:05:07;;;;;;;;;;;;;;;1.56;100.00;101783.27;107337;1284;61232;-78
2022/01/19 08:08:04;;;;;;;;;;;;;;;;;;;;;
2022/01/19 08:10:31;;;;;;;;;;;;;;;1.68;100.00;101776.85;107347;1284;71530;-78
2022/01/19 08:13:11;;;;;;;;;;;;;;;1.72;99.95;101770.87;107295;1285;73013;-78
2022/01/19 08:15:38;;;;;;;;;;;;;;;1.75;99.73;101771.73;107300;1286;61673;-78
2022/01/19 08:18:14;;;;;;;;;;;;;;;1.76;99.39;101778.81;107386;1286;60370;-78
2022/01/19 08:21:00;;;;;;;;;;;;;;;1.75;99.02;101784.06;107360;1286;75985;-79
2022/01/19 08:23:30;;;;;;;;;;;;;;;1.76;99.06;101784.70;107238;1287;73803;-78
2022/01/19 08:25:57;;;;;;;;;;;;;;;1.79;98.85;101793.58;107340;1287;72966;-78
2022/01/19 08:28:29;;;;;;;;;;;;;;;1.80;98.57;101796.88;107328;1287;62238;-79
2022/01/19 08:30:55;;;;;;;;;;;;;;;1.81;98.49;101796.46;107023;1287;60458;-78
2022/01/19 08:33:22;;;;;;;;;;;;;;;1.84;98.55;101797.84;107296;1286;59729;-78
2022/01/19 08:35:48;;;;;;;;;;;;;;;1.86;98.41;101795.83;107375;1286;59658;-78
2022/01/19 08:38:15;;;;;;;;;;;;;;;1.88;98.30;101795.70;107085;1287;72906;-77
2022/01/19 08:40:45;;;;;;;;;;;;;;;1.91;98.09;101793.77;107325;1286;62595;-77
2022/01/19 08:43:11;;;;;;;;;;;;;;;1.93;97.84;101786.87;107262;1285;59435;-77
2022/01/19 08:45:55;;;;;;;;;;;;;;;;;;;;;
2022/01/19 08:48:25;;;;;;;;;;;;;;;2.01;97.68;101776.09;107120;1286;70943;-80
2022/01/19 08:50:59;;;;;;;;;;;;;;;2.06;97.52;101779.61;107394;1286;73137;-81
2022/01/19 08:53:29;;;;;;;;;;;;;;;2.12;97.28;101770.55;107452;1286;62078;-81
2022/01/19 08:56:08;;;;;;;;;;;;;;;2.16;97.09;101761.59;107455;1286;60695;-82
2022/01/19 08:59:10;;;;;;;;;;;;;;;2.19;96.69;101765.59;107461;1287;75263;-80
2022/01/19 09:01:37;;;;;;;;;;;;;;;2.23;96.43;101762.71;107336;1287;71949;-78
2022/01/19 09:04:28;;;;;;;;;;;;;;;2.26;95.72;101760.43;107333;1284;72394;-77
2022/01/19 09:07:19;;;;;;;;;;;;;;;2.27;95.29;101758.31;107288;1285;61057;-80
2022/01/19 09:09:46;;;;;;;;;;;;;;;2.29;95.20;101754.80;107403;1286;61117;-78
2022/01/19 09:12:20;;;;;;;;;;;;;;;2.33;94.98;101757.89;107296;1287;74991;-80
2022/01/19 09:14:55;;;;;;;;;;;;;;;2.34;94.86;101754.48;107476;1286;73243;-79
2022/01/19 09:17:21;;;;;;;;;;;;;;;2.35;94.78;101755.48;107392;1286;72941;-80
2022/01/19 09:19:57;;;;;;;;;;;;;;;2.40;94.85;101748.20;107318;1287;59245;-77
2022/01/19 09:22:24;;;;;;;;;;;;;;;2.42;94.46;101753.66;107062;1286;60361;-78
2022/01/19 09:24:50;;;;;;;;;;;;;;;2.43;94.50;101751.48;107225;1287;74864;-77
2022/01/19 09:27:41;;;;;;;;;;;;;;;2.41;94.01;101751.09;107331;1286;59204;-78
2022/01/19 09:30:27;;;;;;;;;;;;;;;2.43;94.07;101746.09;106960;1287;72959;-78
2022/01/19 09:33:07;;;;;;;;;;;;;;;2.48;94.00;101746.86;107285;1286;61531;-80
2022/01/19 09:38:21;;;;;;;;;;;;;;;2.56;93.58;101732.55;107213;1287;74945;-78
2022/01/19 09:40:48;;;;;;;;;;;;;;;2.59;93.05;101725.02;107402;1286;71458;-78
2022/01/19 09:43:27;;;;;;;;;;;;;;;;;;;;;
2022/01/19 09:46:05;;;;;;;;;;;;;;;2.67;92.80;101710.34;107362;1287;60381;-80
2022/01/19 09:48:52;;;;;;;;;;;;;;;2.69;92.22;101703.41;107446;1286;59538;-80
2022/01/19 09:51:19;;;;;;;;;;;;;;;2.71;92.31;101702.61;107374;1287;74659;-77
2022/01/19 09:53:48;;;;;;;;;;;;;;;2.72;92.08;101698.31;107337;1285;71839;-77
2022/01/19 09:56:18;;;;;;;;;;;;;;;2.72;91.95;101693.29;107314;1286;71428;-76
2022/01/19 09:58:45;;;;;;;;;;;;;;;2.74;91.92;101687.05;107319;1286;60556;-78
2022/01/19 10:01:22;;;;;;;;;;;;;;;2.76;92.21;101687.58;107298;1286;61683;-76
2022/01/19 10:04:14;;;;;;;;;;;;;;;2.81;92.19;101686.05;107225;1287;74749;-76
2022/01/19 10:06:46;;;;;;;;;;;;;;;2.84;91.65;101682.38;107381;1285;71537;-80
2022/01/19 10:09:32;;;;;;;;;;;;;;;;;;;;;
2022/01/19 10:17:39;;;;;;;;;;;;;;;2.94;90.70;101665.08;107348;1285;74740;-79
2022/01/19 10:20:19;;;;;;;;;;;;;;;2.95;90.83;101660.48;107382;1285;72010;-80
2022/01/19 10:23:00;;;;;;;;;;;;;;;2.96;91.38;101653.98;107428;1286;72832;-78
2022/01/19 10:25:45;;;;;;;;;;;;;;;2.97;91.20;101639.21;107151;1285;59919;-77
2022/01/19 10:28:18;;;;;;;;;;;;;;;2.99;91.28;101630.17;107184;1285;60389;-78
2022/01/19 10:30:47;;;;;;;;;;;;;;;3.02;90.89;101625.95;107138;1285;74965;-79
2022/01/19 10:33:45;;;;;;;;;;;;;;;3.03;90.64;101623.95;107429;1285;71115;-79
2022/01/19 10:36:32;;;;;;;;;;;;;;;3.07;91.13;101621.96;107253;1287;73080;-79
2022/01/19 10:39:03;;;;;;;;;;;;;;;3.09;90.55;101617.48;107372;1287;61628;-79
2022/01/19 10:41:32;;;;;;;;;;;;;;;3.12;90.39;101612.68;107401;1286;61735;-78
2022/01/19 10:44:04;;;;;;;;;;;;;;;3.13;90.20;101610.88;107377;1287;75145;-79
2022/01/19 10:46:33;;;;;;;;;;;;;;;3.15;90.31;101605.02;107458;1286;71162;-79
2022/01/19 10:49:12;;;;;;;;;;;;;;;3.15;90.12;101599.88;107283;1287;73083;-78
2022/01/19 10:51:56;;;;;;;;;;;;;;;;;;;;;
2022/01/19 10:54:32;;;;;;;;;;;;;;;3.13;89.77;101587.10;107172;1285;60254;-78
2022/01/19 10:57:28;;;;;;;;;;;;;;;;;;;;;
2022/01/19 11:00:33;;;;;;;;;;;;;;;3.05;88.53;101591.15;107415;1286;71622;-80
2022/01/19 11:03:51;;;;;;;;;;;;;;;;;;;;;
2022/01/19 11:06:20;;;;;;;;;;;;;;;3.07;88.56;101564.26;107379;1286;62250;-79
2022/01/19 11:08:56;;;;;;;;;;;;;;;3.12;88.69;101561.84;107286;1285;60716;-79
2022/01/19 11:11:25;;;;;;;;;;;;;;;3.15;88.47;101561.29;107378;1287;74995;-80
2022/01/19 11:13:56;;;;;;;;;;;;;;;3.15;88.39;101561.77;107471;1285;71541;-80
2022/01/19 11:16:36;;;;;;;;;;;;;;;;;;;;;
2022/01/19 11:19:32;;;;;;;;;;;;;;;3.19;88.21;101556.11;107378;1287;61397;-79
2022/01/19 11:22:07;;;;;;;;;;;;;;;3.19;87.95;101555.40;107373;1287;60622;-79
2022/01/19 11:25:00;;;;;;;;;;;;;;;3.17;88.30;101555.86;107488;1287;76415;-80
2022/01/19 11:27:37;;;;;;;;;;;;;;;3.14;88.29;101550.69;107421;1287;71404;-80
2022/01/19 11:30:34;;;;;;;;;;;;;;;3.09;88.20;101554.86;107169;1287;73746;-78
2022/01/19 11:33:23;;;;;;;;;;;;;;;3.07;88.32;101538.75;107444;1287;62686;-79
2022/01/19 11:35:57;;;;;;;;;;;;;;;3.06;88.94;101526.95;107319;1285;61813;-78
2022/01/19 11:38:26;;;;;;;;;;;;;;;3.05;88.91;101520.89;107253;1287;75331;-78
2022/01/19 11:40:56;;;;;;;;;;;;;;;3.04;88.94;101511.88;107239;1287;71377;-78
2022/01/19 11:43:28;;;;;;;;;;;;;;;3.03;89.20;101514.21;107291;1285;73048;-77
2022/01/19 11:45:59;;;;;;;;;;;;;;;3.02;89.19;101512.55;107190;1285;61422;-78
2022/01/19 11:48:35;;;;;;;;;;;;;;;3.00;89.24;101503.59;107201;1286;61564;-79
2022/01/19 11:51:20;;;;;;;;;;;;;;;3.00;89.03;101495.77;107310;1287;75043;-77
2022/01/19 11:54:04;;;;;;;;;;;;;;;2.98;89.08;101488.55;107350;1287;71426;-77
2022/01/19 11:56:31;;;;;;;;;;;;;;;2.96;89.23;101479.76;107162;1287;72937;-78
2022/01/19 11:59:03;;;;;;;;;;;;;;;2.97;89.43;101469.77;107204;1286;61089;-78
2022/01/19 12:01:30;;;;;;;;;;;;;;;2.95;88.47;101456.95;107215;1287;61432;-79
2022/01/19 12:04:19;;;;;;;;;;;;;;;2.96;88.43;101439.96;107348;1287;73668;-78
2022/01/19 12:06:47;;;;;;;;;;;;;;;2.96;88.68;101429.81;107333;1286;71403;-78
2022/01/19 12:09:15;;;;;;;;;;;;;;;2.94;88.59;101414.77;107157;1286;72964;-78
2022/01/19 12:11:49;;;;;;;;;;;;;;;2.94;88.44;101410.55;107355;1287;61388;-78
2022/01/19 12:14:20;;;;;;;;;;;;;;;2.96;88.50;101406.02;107303;1286;61165;-78
2022/01/19 12:17:02;;;;;;;;;;;;;;;2.98;88.27;101405.86;107351;1286;74900;-78
2022/01/19 12:19:40;;;;;;;;;;;;;;;2.99;87.99;101409.50;107257;1286;70707;-79
2022/01/19 12:22:19;;;;;;;;;;;;;;;3.00;87.99;101411.19;107395;1286;73147;-78
2022/01/19 12:24:59;;;;;;;;;;;;;;;2.99;87.43;101404.79;107314;1286;61221;-78
2022/01/19 12:27:30;;;;;;;;;;;;;;;3.01;87.17;101393.94;107342;1287;61332;-78
2022/01/19 12:30:10;;;;;;;;;;;;;;;3.04;87.21;101397.64;107218;1287;74840;-78
2022/01/19 12:32:45;;;;;;;;;;;;;;;3.05;86.92;101391.61;107309;1286;72587;-77
2022/01/19 12:35:35;;;;;;;;;;;;;;;3.05;87.14;101387.20;107251;1285;74017;-78
2022/01/19 12:38:07;;;;;;;;;;;;;;;3.05;86.66;101379.48;107169;1287;59287;-77
2022/01/19 12:40:36;;;;;;;;;;;;;;;3.07;86.72;101374.48;107311;1287;60432;-78
2022/01/19 12:43:05;;;;;;;;;;;;;;;3.07;86.51;101367.48;107285;1285;75120;-78
2022/01/19 12:45:35;;;;;;;;;;;;;;;3.08;86.19;101370.56;107192;1287;71879;-78
2022/01/19 12:48:14;;;;;;;;;;;;;;;3.10;86.05;101365.40;107154;1285;71977;-77
2022/01/19 12:50:45;;;;;;;;;;;;;;;3.09;86.31;101357.80;107298;1286;61027;-77
2022/01/19 12:53:50;;;;;;;;;;;;;;;3.09;86.46;101351.67;107267;1286;60534;-79
2022/01/19 12:56:51;;;;;;;;;;;;;;;3.09;86.15;101348.65;107300;1286;76829;-78
2022/01/19 12:59:22;;;;;;;;;;;;;;;3.12;86.48;101341.31;107403;1286;70356;-78
2022/01/19 13:02:30;;;;;;;;;;;;;;;3.12;86.05;101340.77;107289;1286;71680;-77
2022/01/19 13:05:28;;;;;;;;;;;;;;;3.15;86.16;101327.42;107178;1286;61498;-78
2022/01/19 13:08:02;;;;;;;;;;;;;;;3.18;86.09;101329.11;107303;1286;61474;-78
2022/01/19 13:10:47;;;;;;;;;;;;;;;3.20;86.14;101325.33;107227;1286;74571;-78
2022/01/19 13:13:28;;;;;;;;;;;;;;;3.18;85.41;101323.02;107112;1287;71545;-77
2022/01/19 13:16:13;;;;;;;;;;;;;;;3.16;85.19;101324.21;107276;1285;73972;-78
2022/01/19 13:18:49;;;;;;;;;;;;;;;3.16;85.24;101313.39;107268;1286;62533;-78
2022/01/19 13:21:36;;;;;;;;;;;;;;;3.16;85.46;101305.69;107253;1287;61534;-76
2022/01/19 13:24:15;;;;;;;;;;;;;;;3.13;85.58;101296.17;107285;1286;75086;-78
2022/01/19 13:26:55;;;;;;;;;;;;;;;3.11;85.66;101283.15;107251;1285;71458;-79
2022/01/19 13:29:23;;;;;;;;;;;;;;;3.11;85.62;101270.96;107174;1287;71942;-77
2022/01/19 13:31:58;;;;;;;;;;;;;;;3.13;85.89;101264.15;106778;1285;619376;-79
2022/01/19 13:34:30;;;;;;;;;;;;;;;3.14;85.78;101261.14;107259;1285;60257;-80
2022/01/19 13:37:14;;;;;;;;;;;;;;;;;;;;;
2022/01/19 13:39:41;;;;;;;;;;;;;;;3.14;85.62;101239.81;107163;1286;72182;-78
2022/01/19 13:42:07;;;;;;;;;;;;;;;3.15;85.39;101247.04;107146;1287;74277;-78
2022/01/19 13:44:47;;;;;;;;;;;;;;;;;;;;;
2022/01/19 13:47:25;;;;;;;;;;;;;;;3.20;85.69;101230.05;107133;1287;60442;-78
2022/01/19 13:50:14;;;;;;;;;;;;;;;3.20;85.50;101227.27;107159;1286;73814;-80
2022/01/19 13:52:49;;;;;;;;;;;;;;;3.20;85.22;101223.77;107168;1286;71386;-78
2022/01/19 13:55:43;;;;;;;;;;;;;;;3.21;85.26;101226.32;107236;1287;73313;-78
2022/01/19 13:58:13;;;;;;;;;;;;;;;3.22;85.30;101224.16;107178;1287;61509;-79
2022/01/19 14:01:14;;;;;;;;;;;;;;;;;;;;;
2022/01/19 14:03:44;;;;;;;;;;;;;;;3.22;85.35;101223.44;107305;1286;74940;-79
2022/01/19 14:06:24;;;;;;;;;;;;;;;3.21;85.12;101224.58;107240;1287;72473;-78
2022/01/19 14:09:10;;;;;;;;;;;;;;;3.22;85.57;101224.98;107091;1287;74983;-77
2022/01/19 14:11:37;;;;;;;;;;;;;;;3.21;85.86;101220.70;107173;1285;61499;-77
2022/01/19 14:14:08;;;;;;;;;;;;;;;3.21;85.63;101222.80;107135;1287;60849;-78
2022/01/19 14:16:38;;;;;;;;;;;;;;;3.19;85.44;101222.80;107318;1286;76066;-78
2022/01/19 14:19:05;;;;;;;;;;;;;;;3.19;85.52;101219.10;107255;1287;71247;-78
2022/01/19 14:22:01;;;;;;;;;;;;;;;3.20;85.78;101211.33;107239;1286;73107;-78
2022/01/19 14:24:45;;;;;;;;;;;;;;;3.21;85.59;101212.48;107087;1287;62697;-78
2022/01/19 14:27:38;;;;;;;;;;;;;;;3.21;85.57;101195.74;107240;1287;59963;-79
2022/01/19 14:30:11;;;;;;;;;;;;;;;3.20;85.80;101195.07;107115;1287;76024;-80
2022/01/19 14:32:48;;;;;;;;;;;;;;;3.20;85.99;101186.18;107376;1285;71490;-79
2022/01/19 14:35:24;;;;;;;;;;;;;;;3.20;86.02;101182.51;107205;1287;73030;-80
2022/01/19 14:38:11;;;;;;;;;;;;;;;3.20;86.40;101180.77;107380;1286;60185;-79
2022/01/19 14:40:53;;;;;;;;;;;;;;;3.19;86.99;101168.63;107224;1287;62078;-78
2022/01/19 14:43:25;;;;;;;;;;;;;;;3.15;87.14;101169.95;107300;1287;76694;-79
2022/01/19 14:45:56;;;;;;;;;;;;;;;3.12;87.93;101162.30;107364;1286;71412;-80
2022/01/19 14:48:42;;;;;;;;;;;;;;;3.09;88.45;101155.52;107323;1285;73426;-78
2022/01/19 14:51:32;;;;;;;;;;;;;;;3.09;88.99;101132.02;107238;1287;61417;-78